Time;durP1;ratioP1;P1;durP2;ratioP2;P2;SDS_P1;SDS_P2;PMS_P1;PMS_P2;Temp;Humidity;BMP_temperature;BMP_pressure;BME280_temperature;BME280_humidity;BME280_pressure;Samples;Min_cycle;Max_cycle;Signal;HPM_P1;HPM_P2
2021/03/23 00:00:35;;;;;;;16.10;8.05;;;4.60;94.50;;;;;;4982064;28;20149;-68
2021/03/23 00:03:08;;;;;;;13.18;7.75;;;4.60;94.60;;;;;;4981473;28;20044;-67
2021/03/23 00:05:33;;;;;;;14.75;8.95;;;4.60;94.60;;;;;;4983668;28;20053;-70
2021/03/23 00:07:59;;;;;;;15.73;8.68;;;4.60;94.70;;;;;;4982418;28;20124;-68
2021/03/23 00:10:27;;;;;;;16.00;8.75;;;4.60;94.60;;;;;;4983257;28;20037;-71
2021/03/23 00:12:54;;;;;;;15.20;7.85;;;4.60;94.60;;;;;;4981511;28;20838;-68
2021/03/23 00:15:21;;;;;;;13.73;7.47;;;4.60;94.70;;;;;;4984281;28;20058;-70
2021/03/23 00:17:48;;;;;;;15.98;7.10;;;4.60;94.70;;;;;;4989542;28;20026;-69
2021/03/23 00:20:21;;;;;;;13.30;7.05;;;4.50;94.70;;;;;;4987646;28;20046;-68
2021/03/23 00:22:47;;;;;;;15.82;6.75;;;4.50;94.80;;;;;;4985849;28;20033;-70
2021/03/23 00:25:14;;;;;;;10.32;6.10;;;4.60;94.80;;;;;;4987347;28;20515;-68
2021/03/23 00:27:40;;;;;;;14.68;6.00;;;4.50;94.70;;;;;;4985144;28;20037;-67
2021/03/23 00:30:09;;;;;;;15.10;5.60;;;4.50;94.70;;;;;;4987029;28;20034;-68
2021/03/23 00:32:35;;;;;;;10.60;6.32;;;4.50;94.50;;;;;;4986020;28;20034;-68
2021/03/23 00:35:01;;;;;;;13.65;6.35;;;4.50;94.60;;;;;;4986665;28;20044;-68
2021/03/23 00:37:27;;;;;;;11.93;5.45;;;4.50;94.60;;;;;;4987228;28;20670;-67
2021/03/23 00:39:53;;;;;;;12.45;5.28;;;4.50;94.50;;;;;;4987259;28;20018;-68
2021/03/23 00:42:19;;;;;;;10.85;5.60;;;4.40;94.30;;;;;;4985576;28;20026;-70
2021/03/23 00:44:46;;;;;;;10.45;5.20;;;4.50;94.20;;;;;;4987680;28;20046;-69
2021/03/23 00:47:12;;;;;;;11.57;4.90;;;4.40;94.10;;;;;;4986593;28;20040;-68
2021/03/23 00:49:37;;;;;;;8.15;4.72;;;4.40;94.00;;;;;;4984967;28;21076;-69
2021/03/23 00:52:03;;;;;;;11.70;5.13;;;4.40;94.10;;;;;;4986162;28;20084;-68
2021/03/23 00:54:29;;;;;;;11.52;4.82;;;4.40;94.10;;;;;;4986156;28;20030;-68
2021/03/23 00:56:56;;;;;;;10.20;4.68;;;4.40;94.20;;;;;;4989440;28;21449;-67
2021/03/23 00:59:21;;;;;;;7.93;4.10;;;4.40;94.20;;;;;;5003617;28;20041;-67
2021/03/23 01:01:47;;;;;;;11.23;3.45;;;4.30;94.00;;;;;;5007742;28;20506;-67
2021/03/23 01:04:13;;;;;;;8.65;3.60;;;4.30;93.90;;;;;;5000348;28;20038;-68
2021/03/23 01:06:38;;;;;;;9.00;3.97;;;4.30;93.90;;;;;;5007685;28;20041;-67
2021/03/23 01:09:04;;;;;;;13.27;3.75;;;4.30;93.80;;;;;;5007099;28;20030;-67
2021/03/23 01:11:30;;;;;;;9.88;3.42;;;4.30;93.80;;;;;;5000125;28;20034;-67
2021/03/23 01:13:56;;;;;;;7.50;3.17;;;4.20;93.60;;;;;;4999725;28;20049;-67
2021/03/23 01:16:22;;;;;;;8.82;3.45;;;4.20;93.50;;;;;;5007743;28;20033;-68
2021/03/23 01:18:47;;;;;;;7.40;2.92;;;4.20;93.60;;;;;;4998520;28;20028;-68
2021/03/23 01:21:13;;;;;;;7.13;2.88;;;4.20;93.30;;;;;;5004519;28;20038;-67
2021/03/23 01:23:39;;;;;;;8.43;2.90;;;4.10;93.00;;;;;;5004450;28;20088;-67
2021/03/23 01:26:04;;;;;;;8.63;2.67;;;4.20;93.10;;;;;;5002066;28;20030;-67
2021/03/23 01:28:30;;;;;;;11.15;2.53;;;4.10;92.80;;;;;;5003817;28;20301;-67
2021/03/23 01:30:56;;;;;;;6.22;2.50;;;4.10;92.90;;;;;;5003678;28;20652;-67
2021/03/23 01:33:21;;;;;;;8.48;2.63;;;4.20;92.80;;;;;;5004895;28;20032;-66
2021/03/23 01:35:47;;;;;;;7.75;2.92;;;4.10;92.90;;;;;;5004538;28;20109;-67
2021/03/23 01:38:13;;;;;;;7.78;3.03;;;4.20;92.90;;;;;;5008233;28;20128;-69
2021/03/23 01:40:39;;;;;;;6.13;3.08;;;4.20;93.10;;;;;;5002887;28;20058;-68
2021/03/23 01:43:07;;;;;;;7.97;2.53;;;4.10;92.90;;;;;;5003634;28;20121;-67
2021/03/23 01:45:35;;;;;;;9.85;2.65;;;4.10;93.00;;;;;;5004572;28;20030;-69
2021/03/23 01:48:04;;;;;;;7.57;2.70;;;4.10;93.00;;;;;;5006170;28;20026;-69
2021/03/23 01:50:31;;;;;;;7.25;2.55;;;4.10;92.90;;;;;;5002459;28;20506;-67
2021/03/23 01:53:14;;;;;;;6.75;2.60;;;4.10;93.00;;;;;;4995831;28;20025;-67
2021/03/23 01:55:39;;;;;;;11.25;3.35;;;4.10;93.00;;;;;;5004538;28;20341;-67
2021/03/23 01:58:06;;;;;;;7.85;3.00;;;4.10;93.10;;;;;;5003045;28;20038;-68
2021/03/23 02:00:32;;;;;;;7.32;3.38;;;4.10;93.20;;;;;;5005777;28;20042;-69
2021/03/23 02:02:59;;;;;;;8.65;2.95;;;4.10;93.30;;;;;;5003230;28;20033;-68
2021/03/23 02:05:28;;;;;;;7.82;2.92;;;4.10;93.40;;;;;;5006972;28;20427;-69
2021/03/23 02:07:56;;;;;;;7.43;3.15;;;4.10;93.50;;;;;;4999566;28;20038;-68
2021/03/23 02:10:22;;;;;;;7.47;3.30;;;4.10;93.60;;;;;;5007250;28;20437;-67
2021/03/23 02:12:50;;;;;;;12.93;3.83;;;4.10;93.70;;;;;;5006188;28;20030;-66
2021/03/23 02:15:21;;;;;;;9.48;3.10;;;4.10;93.70;;;;;;4999863;28;20372;-67
2021/03/23 02:18:03;;;;;;;;;;;4.10;93.70;;;;;;4989035;28;20169;-67
2021/03/23 02:20:29;;;;;;;13.18;3.13;;;4.10;93.70;;;;;;5006703;28;19918;-68
2021/03/23 02:23:05;;;;;;;5.78;3.08;;;4.10;93.60;;;;;;5007106;28;20037;-68
2021/03/23 02:25:30;;;;;;;10.88;3.65;;;4.10;93.60;;;;;;5001302;28;20407;-67
2021/03/23 02:27:56;;;;;;;11.38;3.75;;;4.10;93.60;;;;;;4999196;28;20034;-69
2021/03/23 02:30:34;;;;;;;9.43;3.00;;;4.10;93.60;;;;;;5003369;28;20080;-68
2021/03/23 02:33:00;;;;;;;11.65;3.33;;;4.20;93.60;;;;;;4995191;28;20144;-68
2021/03/23 02:35:26;;;;;;;9.20;3.25;;;4.10;93.60;;;;;;5006523;28;20034;-68
2021/03/23 02:37:52;;;;;;;8.15;3.30;;;4.10;93.50;;;;;;5002050;28;20487;-69
2021/03/23 02:40:18;;;;;;;10.20;3.05;;;4.10;93.60;;;;;;5007110;28;20268;-68
2021/03/23 02:42:43;;;;;;;8.60;3.30;;;4.10;93.50;;;;;;5007558;28;22073;-68
2021/03/23 02:45:09;;;;;;;9.15;3.28;;;4.10;93.50;;;;;;5005977;28;20057;-67
2021/03/23 02:47:35;;;;;;;12.10;3.15;;;4.20;93.40;;;;;;5005750;28;20391;-68
2021/03/23 02:50:01;;;;;;;10.00;3.40;;;4.10;93.30;;;;;;5006353;28;20026;-70
2021/03/23 02:52:27;;;;;;;6.50;2.55;;;4.10;93.30;;;;;;5008402;28;20030;-69
2021/03/23 02:54:52;;;;;;;7.15;3.22;;;4.20;93.30;;;;;;5006813;28;20084;-67
2021/03/23 02:57:18;;;;;;;6.75;2.97;;;4.20;93.20;;;;;;5003727;28;20029;-67
2021/03/23 02:59:44;;;;;;;8.95;3.13;;;4.20;93.10;;;;;;5000121;28;20026;-67
2021/03/23 03:02:09;;;;;;;13.43;3.20;;;4.10;93.10;;;;;;5006058;28;20061;-68
2021/03/23 03:04:36;;;;;;;7.13;3.05;;;4.10;93.10;;;;;;5006331;28;20052;-69
2021/03/23 03:07:03;;;;;;;7.72;2.80;;;4.10;93.20;;;;;;4980978;28;20078;-67
2021/03/23 03:09:28;;;;;;;6.68;2.97;;;4.10;93.30;;;;;;5000965;28;20534;-68
2021/03/23 03:11:54;;;;;;;6.32;2.78;;;4.10;93.20;;;;;;5005108;28;20018;-69
2021/03/23 03:14:20;;;;;;;7.72;2.80;;;4.10;93.20;;;;;;5006467;28;20293;-68
2021/03/23 03:16:46;;;;;;;6.03;2.78;;;4.10;93.10;;;;;;5007938;28;20521;-67
2021/03/23 03:19:12;;;;;;;6.57;2.40;;;4.10;93.00;;;;;;5002662;28;20041;-68
2021/03/23 03:21:38;;;;;;;6.97;2.85;;;4.10;92.90;;;;;;5005026;28;20038;-68
2021/03/23 03:24:05;;;;;;;6.63;2.88;;;4.10;92.80;;;;;;5001344;28;20097;-67
2021/03/23 03:26:31;;;;;;;7.63;2.88;;;4.10;92.70;;;;;;5005467;28;20526;-69
2021/03/23 03:28:57;;;;;;;4.90;2.95;;;4.10;92.70;;;;;;5005661;28;20104;-69
2021/03/23 03:31:25;;;;;;;6.20;2.95;;;4.10;92.60;;;;;;5006332;28;20521;-68
2021/03/23 03:33:52;;;;;;;7.20;2.80;;;4.10;92.70;;;;;;4992961;28;20038;-69
2021/03/23 03:36:20;;;;;;;10.50;3.05;;;4.10;92.60;;;;;;5007445;28;20026;-69
2021/03/23 03:38:45;;;;;;;7.63;2.83;;;4.10;92.60;;;;;;5005724;28;20057;-69
2021/03/23 03:41:11;;;;;;;11.65;2.70;;;4.20;92.60;;;;;;5000659;28;20115;-68
2021/03/23 03:43:37;;;;;;;5.68;3.00;;;4.20;92.50;;;;;;5006261;28;20508;-68
2021/03/23 03:46:04;;;;;;;6.55;2.72;;;4.20;92.50;;;;;;5004439;28;20113;-68
2021/03/23 03:48:30;;;;;;;6.03;2.80;;;4.10;92.60;;;;;;4986851;28;20026;-67
2021/03/23 03:50:56;;;;;;;7.85;3.17;;;4.20;92.50;;;;;;5000714;28;20113;-67
2021/03/23 03:53:22;;;;;;;6.32;2.95;;;4.20;92.50;;;;;;5005951;28;20033;-68
2021/03/23 03:55:49;;;;;;;5.88;2.50;;;4.20;92.40;;;;;;5004374;28;20502;-68
2021/03/23 03:58:16;;;;;;;9.23;2.50;;;4.20;92.20;;;;;;4999984;28;20033;-68
2021/03/23 04:00:42;;;;;;;5.03;2.55;;;4.20;92.10;;;;;;5004470;28;20030;-69
2021/03/23 04:03:16;;;;;;;8.95;2.90;;;4.20;92.10;;;;;;5006521;28;20045;-68
2021/03/23 04:05:43;;;;;;;7.05;2.42;;;4.10;92.10;;;;;;4989076;28;20084;-69
2021/03/23 04:08:12;;;;;;;6.47;2.78;;;4.10;92.10;;;;;;5002451;28;20030;-68
2021/03/23 04:10:39;;;;;;;5.85;2.38;;;4.20;92.10;;;;;;5003755;28;20646;-68
2021/03/23 04:13:04;;;;;;;4.75;2.35;;;4.10;92.10;;;;;;5004392;28;20084;-68
2021/03/23 04:15:34;;;;;;;10.35;2.60;;;4.10;92.20;;;;;;5002643;28;20026;-69
2021/03/23 04:18:00;;;;;;;6.03;2.58;;;4.10;92.30;;;;;;5004660;28;20442;-69
2021/03/23 04:20:27;;;;;;;9.23;2.83;;;4.10;92.30;;;;;;5005369;28;20044;-70
2021/03/23 04:22:53;;;;;;;8.25;2.65;;;4.10;92.10;;;;;;5005412;28;20021;-68
2021/03/23 04:25:25;;;;;;;6.60;2.70;;;4.10;92.00;;;;;;5001595;28;20030;-69
2021/03/23 04:27:51;;;;;;;7.10;2.65;;;4.20;91.60;;;;;;5003391;28;20068;-69
2021/03/23 04:30:18;;;;;;;5.53;2.67;;;4.20;91.50;;;;;;5005891;28;20022;-68
2021/03/23 04:32:44;;;;;;;4.90;2.60;;;4.20;91.40;;;;;;4996238;28;20031;-69
2021/03/23 04:35:22;;;;;;;6.68;2.58;;;4.20;91.60;;;;;;5002928;28;20032;-69
2021/03/23 04:37:48;;;;;;;6.40;3.03;;;4.20;91.40;;;;;;5001357;28;20167;-70
2021/03/23 04:40:14;;;;;;;8.77;2.75;;;4.20;91.40;;;;;;5005919;28;20038;-69
2021/03/23 04:42:39;;;;;;;10.38;3.00;;;4.20;91.30;;;;;;5007222;28;20088;-68
2021/03/23 04:45:06;;;;;;;10.35;2.60;;;4.20;91.30;;;;;;5002020;28;20061;-69
2021/03/23 04:47:31;;;;;;;13.30;3.05;;;4.20;91.40;;;;;;5004988;28;20034;-68
2021/03/23 04:49:57;;;;;;;4.70;2.63;;;4.20;91.50;;;;;;5001927;28;20030;-67
2021/03/23 04:52:23;;;;;;;6.15;2.88;;;4.20;91.60;;;;;;5005896;28;20025;-70
2021/03/23 04:54:48;;;;;;;11.00;2.60;;;4.20;91.70;;;;;;5004720;28;20414;-69
2021/03/23 04:57:14;;;;;;;5.25;2.80;;;4.10;91.80;;;;;;5004086;28;20038;-69
2021/03/23 04:59:39;;;;;;;10.20;2.80;;;4.10;91.90;;;;;;5000499;28;20026;-69
2021/03/23 05:02:05;;;;;;;7.32;2.80;;;4.20;91.90;;;;;;4988105;28;20174;-69
2021/03/23 05:04:31;;;;;;;6.90;3.03;;;4.20;91.80;;;;;;5007021;28;20030;-69
2021/03/23 05:06:56;;;;;;;7.18;2.60;;;4.10;91.70;;;;;;5005883;28;20422;-68
2021/03/23 05:09:22;;;;;;;8.10;2.70;;;4.10;91.80;;;;;;5003855;28;20037;-68
2021/03/23 05:11:48;;;;;;;6.30;3.30;;;4.10;91.80;;;;;;4985940;28;20514;-69
2021/03/23 05:14:13;;;;;;;7.60;3.28;;;4.10;91.70;;;;;;4988647;28;20053;-68
2021/03/23 05:16:39;;;;;;;5.47;3.00;;;4.10;91.80;;;;;;4987520;28;20034;-68
2021/03/23 05:19:05;;;;;;;7.60;3.20;;;4.10;91.80;;;;;;4993566;28;20033;-70
2021/03/23 05:21:31;;;;;;;5.88;3.20;;;4.10;91.70;;;;;;4988702;28;20034;-68
2021/03/23 05:23:58;;;;;;;7.82;3.17;;;4.10;91.80;;;;;;4987867;28;20038;-70
2021/03/23 05:26:25;;;;;;;6.70;3.08;;;4.10;91.60;;;;;;4985351;28;20152;-68
2021/03/23 05:28:51;;;;;;;8.73;3.28;;;4.10;91.60;;;;;;4986913;28;22655;-70
2021/03/23 05:31:17;;;;;;;6.97;3.65;;;4.10;91.60;;;;;;4985888;28;20038;-69
2021/03/23 05:33:43;;;;;;;11.43;3.45;;;4.10;91.60;;;;;;5002665;28;20061;-68
2021/03/23 05:36:08;;;;;;;9.38;3.80;;;4.10;91.70;;;;;;5008244;28;20022;-69
2021/03/23 05:38:34;;;;;;;11.55;3.88;;;4.10;91.50;;;;;;5006216;28;20029;-69
2021/03/23 05:41:24;;;;;;;9.93;4.10;;;4.10;91.60;;;;;;5001536;28;20025;-68
2021/03/23 05:43:53;;;;;;;9.30;4.43;;;4.20;91.70;;;;;;5008776;28;20029;-68
2021/03/23 05:46:32;;;;;;;11.05;4.57;;;4.20;91.60;;;;;;5006785;28;20025;-69
2021/03/23 05:49:11;;;;;;;11.70;4.88;;;4.20;91.60;;;;;;5004467;28;20029;-69
2021/03/23 05:52:08;;;;;;;10.95;4.60;;;4.20;91.60;;;;;;5006595;28;20038;-68
2021/03/23 05:54:50;;;;;;;13.40;5.00;;;4.20;91.40;;;;;;4992872;28;20038;-69
2021/03/23 05:57:32;;;;;;;11.70;4.80;;;4.20;91.30;;;;;;5007176;28;20033;-69
2021/03/23 06:00:07;;;;;;;12.15;5.35;;;4.30;91.20;;;;;;5003866;28;20568;-69
2021/03/23 06:02:33;;;;;;;12.50;5.22;;;4.30;91.30;;;;;;5008454;28;20077;-69
2021/03/23 06:05:06;;;;;;;13.38;6.45;;;4.30;91.10;;;;;;5007680;28;20029;-69
2021/03/23 06:07:36;;;;;;;9.10;5.18;;;4.30;90.90;;;;;;5007326;28;20458;-69
2021/03/23 06:10:12;;;;;;;9.15;4.90;;;4.30;90.80;;;;;;5004272;28;20038;-68
2021/03/23 06:13:04;;;;;;;10.55;4.95;;;4.30;90.60;;;;;;5004763;28;20025;-68
2021/03/23 06:15:51;;;;;;;10.43;5.18;;;4.40;90.60;;;;;;4995004;28;20093;-68
2021/03/23 06:18:36;;;;;;;10.63;5.13;;;4.40;90.50;;;;;;5002778;28;20036;-68
2021/03/23 06:21:26;;;;;;;11.27;5.40;;;4.50;90.30;;;;;;5008198;28;20033;-69
2021/03/23 06:24:15;;;;;;;9.68;4.50;;;4.50;90.00;;;;;;4991663;28;20026;-69
2021/03/23 06:26:44;;;;;;;7.97;4.70;;;4.50;89.70;;;;;;4998323;28;20334;-68
2021/03/23 06:29:37;;;;;;;8.02;4.75;;;4.60;89.90;;;;;;5002477;28;20078;-69
2021/03/23 06:32:27;;;;;;;7.75;4.65;;;4.60;89.50;;;;;;5000772;28;20026;-69
2021/03/23 06:34:55;;;;;;;10.88;4.90;;;4.60;89.50;;;;;;5003292;28;20015;-68
2021/03/23 06:37:28;;;;;;;11.20;5.13;;;4.60;89.50;;;;;;5007404;28;20026;-70
2021/03/23 06:39:55;;;;;;;14.32;5.65;;;4.70;89.40;;;;;;5003410;28;20037;-69
2021/03/23 06:42:35;;;;;;;9.77;5.18;;;4.70;89.20;;;;;;4990834;28;20462;-66
2021/03/23 06:45:27;;;;;;;13.82;5.30;;;4.80;88.60;;;;;;5000607;28;20031;-67
2021/03/23 06:47:52;;;;;;;;;;;4.80;88.80;;;;;;5003306;28;20033;-66
2021/03/23 06:50:21;;;;;;;10.27;4.88;;;4.80;88.40;;;;;;5000851;28;20463;-67
2021/03/23 06:53:03;;;;;;;10.07;5.63;;;4.80;88.40;;;;;;5005962;28;20479;-67
2021/03/23 06:55:29;;;;;;;13.52;5.50;;;4.90;88.60;;;;;;5002897;28;20356;-67
2021/03/23 06:57:55;;;;;;;9.63;4.78;;;4.90;88.80;;;;;;5001306;28;20064;-66
2021/03/23 07:00:25;;;;;;;12.35;5.25;;;4.90;88.40;;;;;;4998274;28;20045;-66
2021/03/23 07:02:55;;;;;;;10.35;4.70;;;5.00;88.40;;;;;;5004564;28;20037;-68
2021/03/23 07:05:31;;;;;;;10.35;4.88;;;5.00;88.60;;;;;;4998451;28;20490;-68
2021/03/23 07:08:19;;;;;;;10.88;5.13;;;5.00;88.00;;;;;;5005999;28;20065;-67
2021/03/23 07:10:54;;;;;;;10.98;5.05;;;5.00;87.80;;;;;;5004648;28;20494;-66
2021/03/23 07:13:25;;;;;;;9.18;5.28;;;5.10;87.90;;;;;;4994178;28;20472;-67
2021/03/23 07:16:11;;;;;;;9.20;4.93;;;5.10;87.80;;;;;;4994730;28;20019;-67
2021/03/23 07:18:44;;;;;;;9.65;4.93;;;5.10;87.90;;;;;;4999113;28;20080;-67
2021/03/23 07:21:37;;;;;;;14.88;5.32;;;5.10;87.60;;;;;;5003570;28;20043;-67
2021/03/23 07:24:10;;;;;;;17.13;5.43;;;5.10;87.80;;;;;;4985848;28;20112;-67
2021/03/23 07:26:40;;;;;;;10.27;5.63;;;5.10;87.60;;;;;;5002250;28;20038;-67
2021/03/23 07:29:11;;;;;;;13.07;5.70;;;5.10;88.10;;;;;;5002791;28;20030;-67
2021/03/23 07:31:46;;;;;;;9.20;4.95;;;5.10;87.80;;;;;;4998214;28;20146;-67
2021/03/23 07:34:24;;;;;;;12.88;5.50;;;5.10;88.00;;;;;;5006891;28;20036;-67
2021/03/23 07:36:57;;;;;;;9.68;5.15;;;5.10;87.60;;;;;;5004905;28;20034;-67
2021/03/23 07:39:43;;;;;;;14.07;5.93;;;5.10;87.70;;;;;;4998848;28;20397;-68
2021/03/23 07:42:44;;;;;;;14.75;5.78;;;5.20;87.30;;;;;;5007792;28;20017;-67
2021/03/23 07:45:31;;;;;;;12.23;5.38;;;5.20;87.70;;;;;;4969384;28;20132;-67
2021/03/23 07:48:08;;;;;;;14.00;5.90;;;5.20;87.40;;;;;;4991371;28;20057;-66
2021/03/23 07:50:38;;;;;;;13.25;5.80;;;5.30;87.40;;;;;;5003119;28;20022;-67
2021/03/23 07:53:12;;;;;;;12.90;5.68;;;5.30;87.30;;;;;;5005423;28;20034;-67
2021/03/23 07:55:38;;;;;;;10.88;5.15;;;5.30;87.00;;;;;;4994772;28;20030;-67
2021/03/23 07:58:31;;;;;;;17.52;5.75;;;5.30;87.20;;;;;;5004335;28;20037;-67
2021/03/23 08:01:21;;;;;;;11.38;5.60;;;5.40;87.20;;;;;;4997236;28;20030;-66
2021/03/23 08:03:59;;;;;;;11.93;5.50;;;5.40;86.80;;;;;;5004020;28;20056;-66
2021/03/23 08:06:50;;;;;;;14.32;5.70;;;5.40;86.30;;;;;;5003051;28;20044;-68
2021/03/23 08:09:35;;;;;;;14.77;5.68;;;5.50;86.00;;;;;;4985151;28;20371;-66
2021/03/23 08:12:46;;;;;;;13.68;5.53;;;5.50;86.10;;;;;;5000702;28;20026;-67
2021/03/23 08:15:16;;;;;;;13.07;5.75;;;5.50;86.20;;;;;;4997796;28;20025;-67
2021/03/23 08:18:14;;;;;;;9.23;5.10;;;5.60;85.80;;;;;;5001763;28;20026;-67
2021/03/23 08:21:01;;;;;;;12.63;5.90;;;5.60;85.60;;;;;;5005111;28;20043;-66
2021/03/23 08:24:03;;;;;;;10.88;5.75;;;5.60;85.60;;;;;;4999220;28;20089;-66
2021/03/23 08:27:10;;;;;;;12.80;5.30;;;5.60;85.30;;;;;;5005101;28;20109;-66
2021/03/23 08:30:07;;;;;;;15.00;6.05;;;5.60;85.50;;;;;;4996272;28;20446;-67
2021/03/23 08:32:47;;;;;;;10.43;5.00;;;5.70;85.20;;;;;;4997352;28;20069;-66
2021/03/23 08:35:51;;;;;;;14.60;6.28;;;5.70;85.70;;;;;;5005403;28;20069;-67
2021/03/23 08:38:26;;;;;;;13.18;6.35;;;5.80;85.50;;;;;;5003919;28;20502;-66
2021/03/23 08:41:10;;;;;;;20.33;6.07;;;5.80;85.40;;;;;;5004340;28;20037;-66
2021/03/23 08:43:39;;;;;;;18.05;7.20;;;5.80;85.10;;;;;;5005028;28;20042;-66
2021/03/23 08:46:14;;;;;;;16.92;6.68;;;5.90;85.00;;;;;;5007463;28;20129;-67
2021/03/23 08:48:53;;;;;;;12.70;7.25;;;6.00;84.70;;;;;;4997437;28;20112;-68
2021/03/23 08:51:23;;;;;;;18.60;6.85;;;6.10;84.20;;;;;;5005052;28;20036;-68
2021/03/23 08:53:50;;;;;;;16.13;7.07;;;6.20;84.40;;;;;;5002322;28;20125;-67
2021/03/23 08:56:42;;;;;;;16.83;7.80;;;6.30;84.40;;;;;;5004178;28;20032;-68
2021/03/23 08:59:38;;;;;;;19.55;6.97;;;6.50;83.90;;;;;;5001243;28;20033;-67
2021/03/23 09:02:10;;;;;;;14.13;6.90;;;6.50;83.60;;;;;;5006491;28;20084;-67
2021/03/23 09:04:54;;;;;;;12.38;7.35;;;6.60;83.60;;;;;;5005773;28;20096;-65
2021/03/23 09:07:22;;;;;;;15.05;7.15;;;6.60;83.30;;;;;;4999788;28;20029;-67
2021/03/23 09:09:51;;;;;;;13.82;7.57;;;6.50;83.20;;;;;;5007161;28;20120;-67
2021/03/23 09:12:42;;;;;;;18.63;8.35;;;6.60;83.50;;;;;;5002467;28;20092;-67
2021/03/23 09:15:23;;;;;;;19.70;7.97;;;6.90;83.10;;;;;;5012967;28;20407;-67
2021/03/23 09:18:26;;;;;;;13.52;7.88;;;7.00;82.40;;;;;;4997790;28;20022;-67
2021/03/23 09:20:51;;;;;;;18.63;8.38;;;6.90;81.70;;;;;;5000768;28;20447;-67
2021/03/23 09:23:17;;;;;;;22.23;8.63;;;6.90;81.60;;;;;;5001159;28;20038;-66
2021/03/23 09:25:53;;;;;;;18.63;9.02;;;6.90;81.80;;;;;;5002141;28;20129;-67
2021/03/23 09:28:31;;;;;;;15.07;8.65;;;6.90;82.10;;;;;;4985889;28;20026;-66
2021/03/23 09:31:16;;;;;;;16.90;8.98;;;6.90;82.30;;;;;;4998978;28;20402;-67
2021/03/23 09:33:51;;;;;;;20.70;9.93;;;7.00;82.20;;;;;;5003407;28;20026;-67
2021/03/23 09:36:23;;;;;;;20.33;9.77;;;6.90;81.70;;;;;;5005033;28;20022;-68
2021/03/23 09:38:51;;;;;;;20.17;11.63;;;7.00;82.10;;;;;;4998259;28;20262;-68
2021/03/23 09:41:20;;;;;;;23.10;10.77;;;6.90;81.80;;;;;;4998948;28;20516;-67
2021/03/23 09:43:48;;;;;;;22.70;11.45;;;6.80;81.50;;;;;;5006221;28;20049;-68
2021/03/23 09:46:23;;;;;;;26.83;12.75;;;6.90;81.70;;;;;;5005965;28;20036;-67
2021/03/23 09:49:25;;;;;;;21.02;11.68;;;6.90;81.90;;;;;;4993191;28;20479;-67
2021/03/23 09:52:03;;;;;;;21.27;11.80;;;7.00;82.10;;;;;;5001605;28;20026;-67
2021/03/23 09:54:49;;;;;;;24.80;13.40;;;6.90;82.30;;;;;;4994981;28;20479;-66
2021/03/23 09:57:23;;;;;;;21.13;11.82;;;6.70;81.90;;;;;;5001420;28;20033;-67
2021/03/23 09:59:51;;;;;;;24.48;11.75;;;6.60;81.80;;;;;;5003158;28;20061;-67
2021/03/23 10:02:17;;;;;;;24.52;12.82;;;6.70;82.10;;;;;;5002726;28;20487;-67
2021/03/23 10:04:43;;;;;;;24.90;13.02;;;6.50;81.90;;;;;;4999853;28;20029;-68
2021/03/23 10:07:24;;;;;;;25.23;13.38;;;6.50;82.10;;;;;;4993820;28;20501;-67
2021/03/23 10:09:50;;;;;;;26.33;13.48;;;6.50;82.50;;;;;;5002744;28;20114;-68
2021/03/23 10:12:32;;;;;;;23.63;13.27;;;6.40;82.70;;;;;;5001778;28;20116;-67
2021/03/23 10:14:57;;;;;;;;;;;6.40;83.00;;;;;;5001444;28;20064;-67
2021/03/23 10:17:28;;;;;;;28.65;14.70;;;6.40;83.20;;;;;;4996291;28;20357;-66
2021/03/23 10:19:57;;;;;;;27.88;15.50;;;6.40;83.50;;;;;;4996474;28;20060;-67
2021/03/23 10:22:32;;;;;;;25.33;13.88;;;6.50;83.50;;;;;;5008217;28;20037;-67
2021/03/23 10:25:00;;;;;;;23.95;14.43;;;6.40;83.60;;;;;;4987977;28;20021;-66
2021/03/23 10:27:30;;;;;;;28.23;14.10;;;6.30;83.40;;;;;;5007650;28;20034;-67
2021/03/23 10:30:04;;;;;;;31.40;15.35;;;6.40;83.40;;;;;;5020331;28;20522;-67
2021/03/23 10:32:42;;;;;;;32.58;15.98;;;6.30;83.50;;;;;;4992532;28;20034;-67
2021/03/23 10:35:10;;;;;;;26.15;15.65;;;6.40;84.00;;;;;;5000483;28;20403;-67
2021/03/23 10:37:35;;;;;;;23.77;13.88;;;6.60;84.00;;;;;;5003119;28;20037;-67
2021/03/23 10:40:03;;;;;;;31.30;16.55;;;6.60;83.40;;;;;;4988183;28;20035;-66
2021/03/23 10:42:31;;;;;;;29.80;15.85;;;6.50;83.10;;;;;;5000711;28;20045;-67
2021/03/23 10:45:21;;;;;;;26.98;16.08;;;6.50;83.30;;;;;;4995721;28;20052;-66
2021/03/23 10:47:47;;;;;;;26.65;15.43;;;6.40;82.90;;;;;;5001136;28;20026;-68
2021/03/23 10:50:22;;;;;;;28.30;15.57;;;6.50;82.70;;;;;;4982859;28;20026;-68
2021/03/23 10:52:51;;;;;;;29.90;16.25;;;6.60;83.00;;;;;;5003739;28;20744;-66
2021/03/23 10:55:25;;;;;;;27.10;16.17;;;6.50;82.60;;;;;;5003064;28;20410;-66
2021/03/23 10:57:50;;;;;;;28.85;17.02;;;6.60;82.20;;;;;;5005400;28;20022;-66
2021/03/23 11:00:26;;;;;;;31.33;16.50;;;6.60;82.10;;;;;;5001111;28;20036;-67
2021/03/23 11:02:53;;;;;;;29.90;17.15;;;6.70;82.00;;;;;;5001986;28;20088;-67
2021/03/23 11:05:22;;;;;;;31.42;17.20;;;6.70;81.70;;;;;;5005185;28;20022;-66
2021/03/23 11:07:51;;;;;;;30.27;17.30;;;6.70;81.70;;;;;;4996635;28;20030;-67
2021/03/23 11:10:19;;;;;;;29.85;17.48;;;6.60;81.30;;;;;;4991311;28;20453;-66
2021/03/23 11:12:44;;;;;;;25.95;16.52;;;6.80;81.90;;;;;;4993820;28;20032;-67
2021/03/23 11:15:11;;;;;;;29.13;17.15;;;6.80;81.30;;;;;;5003611;28;20104;-66
2021/03/23 11:17:49;;;;;;;31.58;17.42;;;6.60;81.10;;;;;;5003293;28;20068;-68
2021/03/23 11:20:35;;;;;;;32.63;17.25;;;6.50;81.30;;;;;;5000569;28;20156;-67
2021/03/23 11:23:03;;;;;;;32.30;16.92;;;6.60;81.60;;;;;;4982608;28;20128;-65
2021/03/23 11:25:29;;;;;;;30.40;16.10;;;6.70;81.90;;;;;;5002450;28;20548;-68
2021/03/23 11:27:56;;;;;;;26.88;16.83;;;6.70;81.60;;;;;;5005420;28;20030;-68
2021/03/23 11:30:22;;;;;;;28.25;16.17;;;6.70;81.80;;;;;;5000282;28;20034;-67
2021/03/23 11:32:49;;;;;;;30.52;17.33;;;6.70;81.20;;;;;;5005783;28;20049;-66
2021/03/23 11:35:16;;;;;;;29.10;16.88;;;6.70;81.80;;;;;;4999871;28;20026;-66
2021/03/23 11:37:41;;;;;;;31.35;16.55;;;6.70;81.40;;;;;;4994231;28;20022;-67
2021/03/23 11:40:07;;;;;;;23.10;15.27;;;6.80;81.50;;;;;;5001211;28;20392;-67
2021/03/23 11:42:45;;;;;;;25.98;16.23;;;6.70;81.10;;;;;;4996360;28;21661;-67
2021/03/23 11:45:26;;;;;;;27.48;15.43;;;6.90;80.90;;;;;;4998789;28;20387;-67
2021/03/23 11:48:03;;;;;;;28.20;16.63;;;6.80;80.60;;;;;;5000524;28;20034;-66
2021/03/23 11:50:33;;;;;;;27.13;16.08;;;6.90;80.70;;;;;;4998536;28;20538;-67
2021/03/23 11:52:59;;;;;;;24.67;15.30;;;7.00;80.40;;;;;;4996421;28;20635;-67
2021/03/23 11:55:29;;;;;;;23.58;14.68;;;7.00;80.20;;;;;;4998851;28;20034;-66
2021/03/23 11:57:55;;;;;;;24.08;15.75;;;7.10;80.30;;;;;;5001495;28;20034;-68
2021/03/23 12:00:25;;;;;;;29.45;14.57;;;7.10;80.00;;;;;;5000412;28;20037;-68
2021/03/23 12:02:50;;;;;;;28.95;16.33;;;7.10;80.00;;;;;;5004330;28;20044;-67
2021/03/23 12:05:17;;;;;;;24.83;15.35;;;7.20;80.30;;;;;;5001635;28;20029;-66
2021/03/23 12:08:27;;;;;;;28.45;15.15;;;7.20;79.50;;;;;;5003297;28;20041;-66
2021/03/23 12:11:03;;;;;;;26.15;14.65;;;7.30;79.70;;;;;;4993761;28;20029;-68
2021/03/23 12:13:58;;;;;;;28.13;15.73;;;7.20;79.20;;;;;;5001074;28;20437;-67
2021/03/23 12:16:46;;;;;;;25.27;14.68;;;7.40;79.20;;;;;;4999176;28;20037;-67
2021/03/23 12:19:14;;;;;;;26.15;15.07;;;7.40;78.90;;;;;;5003996;28;20057;-67
2021/03/23 12:21:41;;;;;;;26.00;14.90;;;7.60;79.20;;;;;;5007667;28;20023;-67
2021/03/23 12:24:07;;;;;;;25.77;15.02;;;7.70;78.60;;;;;;5003888;28;20383;-67
2021/03/23 12:26:33;;;;;;;28.05;16.05;;;7.90;78.30;;;;;;5000981;28;20053;-66
2021/03/23 12:28:59;;;;;;;23.13;13.82;;;7.90;77.90;;;;;;5001382;28;20038;-68
2021/03/23 12:31:26;;;;;;;29.83;15.50;;;7.90;77.20;;;;;;5005092;28;20052;-67
2021/03/23 12:33:52;;;;;;;25.40;14.05;;;7.80;77.50;;;;;;5004101;28;20021;-66
2021/03/23 12:36:18;;;;;;;26.80;15.23;;;7.80;77.40;;;;;;4988063;28;20516;-67
2021/03/23 12:38:51;;;;;;;22.98;14.88;;;7.80;78.30;;;;;;5005784;28;20065;-69
2021/03/23 12:41:29;;;;;;;26.50;14.65;;;7.70;77.60;;;;;;4997662;28;20786;-68
2021/03/23 12:44:03;;;;;;;24.77;14.98;;;7.60;77.40;;;;;;5020467;28;20040;-68
2021/03/23 12:46:30;;;;;;;24.35;14.70;;;7.50;78.00;;;;;;5004583;28;20514;-70
2021/03/23 12:48:57;;;;;;;23.15;14.68;;;7.50;78.10;;;;;;4986864;28;20121;-68
2021/03/23 12:51:48;;;;;;;23.80;14.65;;;7.50;78.30;;;;;;5003139;28;20034;-69
2021/03/23 12:54:21;;;;;;;22.27;14.32;;;7.60;78.40;;;;;;4997062;28;20030;-68
2021/03/23 12:56:47;;;;;;;26.35;14.70;;;7.50;78.70;;;;;;5001464;28;20034;-69
2021/03/23 12:59:24;;;;;;;23.50;13.98;;;7.50;79.00;;;;;;5004872;28;20042;-69
2021/03/23 13:01:51;;;;;;;26.58;15.57;;;7.40;78.60;;;;;;4968269;28;20117;-68
2021/03/23 13:04:28;;;;;;;24.98;15.02;;;7.50;78.50;;;;;;4997584;28;20088;-68
2021/03/23 13:06:58;;;;;;;23.45;14.90;;;7.60;78.00;;;;;;5000711;28;20152;-67
2021/03/23 13:09:26;;;;;;;23.90;14.90;;;7.90;77.40;;;;;;5017409;28;20522;-66
2021/03/23 13:11:52;;;;;;;23.92;14.95;;;8.10;76.10;;;;;;5004607;28;20497;-66